Arequipa, Peru
Current Conditions -  °F | °C
As of 8:00 AM on Friday 31 Oct 2014 (Local Time) from SPQU Reporting Station
Clear Clear  
Wind Chill: 61°   Ceiling: Unl
Heat Index: 61°   Visibility: 6mi
Dew Point: 28°   Wind: 6mph
Humidity: 29%   Direction: 260°W
Pressure: 30.27"   Gusts: NA
Location:  16.39°S, 71.53°W
Report Text: SPQU 311300Z 26005KT 210V300 CAVOK 16/M02 Q1025 NOSIGRMK PP000
Loading
Personal Weather Stations






























Interactive Weather Map
Tropical Storm Tracking
New forecast layout! Learn more

10-Day Weather Forecast

Advertisements
Track Severe Weather on mobile